Terminal Aerodrome Forecast
Issued by NWS Twin Cities, MN

Home | Current Version | Previous Version | Graphics & Text | Print | Product List | Glossary On
Versions: 1 2 3 4 5 6 7 8 9 10 11 12 13
900
FTUS43 KMPX 141739
TAFEAU
TAF
KEAU 141739Z 1418/1518 16011KT P6SM OVC035
     FM142200 15009KT 1SM -SN BR OVC010
     FM150500 36005KT 2SM -SHSN OVC012
     FM151300 34007KT 3SM -SN OVC015=

USA.gov is the U.S. government's official web portal to all federal, state and local government web resources and services.